sensor_id;sensor_type;location;lat;lon;timestamp;P1;durP1;ratioP1;P2;durP2;ratioP2
21202;SDS011;10759;51.982;9.232;2023-05-08T00:00:55;8.85;;;8.18;;
21202;SDS011;10759;51.982;9.232;2023-05-08T00:03:23;7.50;;;6.97;;
21202;SDS011;10759;51.982;9.232;2023-05-08T00:05:52;8.48;;;7.80;;
21202;SDS011;10759;51.982;9.232;2023-05-08T00:08:21;8.27;;;7.70;;
21202;SDS011;10759;51.982;9.232;2023-05-08T00:10:49;8.15;;;7.55;;
21202;SDS011;10759;51.982;9.232;2023-05-08T00:13:17;8.50;;;7.78;;
21202;SDS011;10759;51.982;9.232;2023-05-08T00:15:46;8.68;;;7.88;;
21202;SDS011;10759;51.982;9.232;2023-05-08T00:18:14;7.65;;;7.15;;
21202;SDS011;10759;51.982;9.232;2023-05-08T00:20:42;8.27;;;7.60;;
21202;SDS011;10759;51.982;9.232;2023-05-08T00:23:10;8.02;;;7.43;;
21202;SDS011;10759;51.982;9.232;2023-05-08T00:25:38;8.70;;;7.90;;
21202;SDS011;10759;51.982;9.232;2023-05-08T00:28:06;7.82;;;7.32;;
21202;SDS011;10759;51.982;9.232;2023-05-08T00:30:34;8.43;;;7.78;;
21202;SDS011;10759;51.982;9.232;2023-05-08T00:33:03;8.82;;;8.13;;
21202;SDS011;10759;51.982;9.232;2023-05-08T00:35:31;8.38;;;7.68;;
21202;SDS011;10759;51.982;9.232;2023-05-08T00:37:59;8.25;;;7.60;;
21202;SDS011;10759;51.982;9.232;2023-05-08T00:40:27;9.40;;;8.55;;
21202;SDS011;10759;51.982;9.232;2023-05-08T00:42:55;8.25;;;7.65;;
21202;SDS011;10759;51.982;9.232;2023-05-08T00:45:23;9.02;;;8.32;;
21202;SDS011;10759;51.982;9.232;2023-05-08T00:47:51;9.30;;;8.70;;
21202;SDS011;10759;51.982;9.232;2023-05-08T00:50:21;8.30;;;7.70;;
21202;SDS011;10759;51.982;9.232;2023-05-08T00:52:49;9.20;;;8.60;;
21202;SDS011;10759;51.982;9.232;2023-05-08T00:55:17;8.85;;;8.25;;
21202;SDS011;10759;51.982;9.232;2023-05-08T00:57:46;8.90;;;8.25;;
21202;SDS011;10759;51.982;9.232;2023-05-08T01:00:14;9.40;;;8.50;;
21202;SDS011;10759;51.982;9.232;2023-05-08T01:02:44;8.75;;;8.13;;
21202;SDS011;10759;51.982;9.232;2023-05-08T01:05:13;8.23;;;7.63;;
21202;SDS011;10759;51.982;9.232;2023-05-08T01:07:43;9.38;;;8.77;;
21202;SDS011;10759;51.982;9.232;2023-05-08T01:10:11;8.80;;;8.20;;
21202;SDS011;10759;51.982;9.232;2023-05-08T01:12:44;9.25;;;8.55;;
21202;SDS011;10759;51.982;9.232;2023-05-08T01:15:20;9.48;;;8.45;;
21202;SDS011;10759;51.982;9.232;2023-05-08T01:17:56;8.23;;;7.53;;
21202;SDS011;10759;51.982;9.232;2023-05-08T01:20:34;9.68;;;8.88;;
21202;SDS011;10759;51.982;9.232;2023-05-08T01:23:21;8.00;;;7.30;;
21202;SDS011;10759;51.982;9.232;2023-05-08T01:32:17;7.65;;;7.15;;
21202;SDS011;10759;51.982;9.232;2023-05-08T01:34:50;8.35;;;7.75;;
21202;SDS011;10759;51.982;9.232;2023-05-08T01:37:27;8.38;;;7.78;;
21202;SDS011;10759;51.982;9.232;2023-05-08T01:40:05;8.93;;;8.27;;
21202;SDS011;10759;51.982;9.232;2023-05-08T01:42:40;8.43;;;7.82;;
21202;SDS011;10759;51.982;9.232;2023-05-08T01:45:13;8.85;;;8.15;;
21202;SDS011;10759;51.982;9.232;2023-05-08T01:47:48;8.98;;;8.38;;
21202;SDS011;10759;51.982;9.232;2023-05-08T01:50:24;9.07;;;8.38;;
21202;SDS011;10759;51.982;9.232;2023-05-08T01:53:03;9.77;;;9.05;;
21202;SDS011;10759;51.982;9.232;2023-05-08T01:55:35;10.40;;;9.50;;
21202;SDS011;10759;51.982;9.232;2023-05-08T01:58:06;8.77;;;8.13;;
21202;SDS011;10759;51.982;9.232;2023-05-08T02:00:38;9.20;;;8.50;;
21202;SDS011;10759;51.982;9.232;2023-05-08T02:03:09;9.30;;;8.60;;
21202;SDS011;10759;51.982;9.232;2023-05-08T02:05:40;8.90;;;8.30;;
21202;SDS011;10759;51.982;9.232;2023-05-08T02:08:11;8.35;;;7.75;;
21202;SDS011;10759;51.982;9.232;2023-05-08T02:10:41;8.57;;;7.80;;
21202;SDS011;10759;51.982;9.232;2023-05-08T02:13:11;9.52;;;8.73;;
21202;SDS011;10759;51.982;9.232;2023-05-08T02:15:44;8.52;;;7.93;;
21202;SDS011;10759;51.982;9.232;2023-05-08T02:18:16;8.93;;;8.23;;
21202;SDS011;10759;51.982;9.232;2023-05-08T02:20:46;8.82;;;8.20;;
21202;SDS011;10759;51.982;9.232;2023-05-08T02:23:16;10.50;;;9.80;;
21202;SDS011;10759;51.982;9.232;2023-05-08T02:25:46;10.30;;;9.38;;
21202;SDS011;10759;51.982;9.232;2023-05-08T02:28:16;9.30;;;8.55;;
21202;SDS011;10759;51.982;9.232;2023-05-08T02:30:45;9.30;;;8.70;;
21202;SDS011;10759;51.982;9.232;2023-05-08T02:33:16;9.45;;;8.75;;
21202;SDS011;10759;51.982;9.232;2023-05-08T02:35:46;9.18;;;8.48;;
21202;SDS011;10759;51.982;9.232;2023-05-08T02:38:17;9.73;;;8.80;;
21202;SDS011;10759;51.982;9.232;2023-05-08T02:40:48;9.90;;;9.00;;
21202;SDS011;10759;51.982;9.232;2023-05-08T02:43:23;9.57;;;8.88;;
21202;SDS011;10759;51.982;9.232;2023-05-08T02:45:55;10.77;;;9.88;;
21202;SDS011;10759;51.982;9.232;2023-05-08T02:48:32;9.82;;;9.13;;
21202;SDS011;10759;51.982;9.232;2023-05-08T02:51:03;11.05;;;9.90;;
21202;SDS011;10759;51.982;9.232;2023-05-08T02:53:44;10.40;;;9.60;;
21202;SDS011;10759;51.982;9.232;2023-05-08T02:56:15;12.05;;;10.95;;
21202;SDS011;10759;51.982;9.232;2023-05-08T02:58:48;12.80;;;11.90;;
21202;SDS011;10759;51.982;9.232;2023-05-08T03:01:24;12.88;;;11.77;;
21202;SDS011;10759;51.982;9.232;2023-05-08T03:03:58;12.77;;;11.80;;
21202;SDS011;10759;51.982;9.232;2023-05-08T03:06:32;12.55;;;11.55;;
21202;SDS011;10759;51.982;9.232;2023-05-08T03:09:05;12.90;;;11.93;;
21202;SDS011;10759;51.982;9.232;2023-05-08T03:11:39;12.45;;;11.30;;
21202;SDS011;10759;51.982;9.232;2023-05-08T03:14:10;12.30;;;11.30;;
21202;SDS011;10759;51.982;9.232;2023-05-08T03:16:40;14.48;;;11.57;;
21202;SDS011;10759;51.982;9.232;2023-05-08T03:19:14;12.27;;;11.38;;
21202;SDS011;10759;51.982;9.232;2023-05-08T03:21:48;12.27;;;11.30;;
21202;SDS011;10759;51.982;9.232;2023-05-08T03:24:18;12.68;;;11.68;;
21202;SDS011;10759;51.982;9.232;2023-05-08T03:26:49;13.25;;;12.25;;
21202;SDS011;10759;51.982;9.232;2023-05-08T03:29:17;12.68;;;11.77;;
21202;SDS011;10759;51.982;9.232;2023-05-08T03:31:46;11.27;;;10.30;;
21202;SDS011;10759;51.982;9.232;2023-05-08T03:36:47;13.32;;;12.32;;
21202;SDS011;10759;51.982;9.232;2023-05-08T03:39:16;12.88;;;11.80;;
21202;SDS011;10759;51.982;9.232;2023-05-08T03:41:45;11.90;;;11.02;;
21202;SDS011;10759;51.982;9.232;2023-05-08T03:44:13;12.82;;;11.85;;
21202;SDS011;10759;51.982;9.232;2023-05-08T03:46:41;13.65;;;12.45;;
21202;SDS011;10759;51.982;9.232;2023-05-08T03:49:11;13.17;;;12.17;;
21202;SDS011;10759;51.982;9.232;2023-05-08T03:51:42;14.48;;;13.27;;
21202;SDS011;10759;51.982;9.232;2023-05-08T03:54:11;14.20;;;13.07;;
21202;SDS011;10759;51.982;9.232;2023-05-08T03:56:39;13.73;;;12.52;;
21202;SDS011;10759;51.982;9.232;2023-05-08T03:59:09;13.18;;;12.18;;
21202;SDS011;10759;51.982;9.232;2023-05-08T04:01:47;13.32;;;12.32;;
21202;SDS011;10759;51.982;9.232;2023-05-08T04:04:18;13.27;;;12.18;;
21202;SDS011;10759;51.982;9.232;2023-05-08T04:06:55;12.40;;;11.50;;
21202;SDS011;10759;51.982;9.232;2023-05-08T04:09:38;14.77;;;13.63;;
21202;SDS011;10759;51.982;9.232;2023-05-08T04:12:13;15.68;;;14.48;;
21202;SDS011;10759;51.982;9.232;2023-05-08T04:14:46;14.82;;;13.75;;
21202;SDS011;10759;51.982;9.232;2023-05-08T04:17:21;17.30;;;16.00;;
21202;SDS011;10759;51.982;9.232;2023-05-08T04:19:59;16.63;;;15.32;;
21202;SDS011;10759;51.982;9.232;2023-05-08T04:22:32;15.45;;;14.25;;
21202;SDS011;10759;51.982;9.232;2023-05-08T04:25:02;15.07;;;13.88;;
21202;SDS011;10759;51.982;9.232;2023-05-08T04:27:32;14.90;;;13.80;;
21202;SDS011;10759;51.982;9.232;2023-05-08T04:30:02;14.53;;;13.37;;
21202;SDS011;10759;51.982;9.232;2023-05-08T04:32:31;15.77;;;14.57;;
21202;SDS011;10759;51.982;9.232;2023-05-08T04:35:01;16.40;;;14.85;;
21202;SDS011;10759;51.982;9.232;2023-05-08T04:37:31;14.30;;;13.10;;
21202;SDS011;10759;51.982;9.232;2023-05-08T04:40:01;15.40;;;14.25;;
21202;SDS011;10759;51.982;9.232;2023-05-08T04:42:31;14.15;;;13.07;;
21202;SDS011;10759;51.982;9.232;2023-05-08T04:45:02;14.63;;;13.43;;
21202;SDS011;10759;51.982;9.232;2023-05-08T04:47:31;15.07;;;13.95;;
21202;SDS011;10759;51.982;9.232;2023-05-08T04:50:00;15.98;;;14.68;;
21202;SDS011;10759;51.982;9.232;2023-05-08T04:52:31;13.25;;;12.25;;
21202;SDS011;10759;51.982;9.232;2023-05-08T04:55:00;14.48;;;12.98;;
21202;SDS011;10759;51.982;9.232;2023-05-08T04:57:32;14.20;;;13.10;;
21202;SDS011;10759;51.982;9.232;2023-05-08T05:00:00;14.38;;;13.18;;
21202;SDS011;10759;51.982;9.232;2023-05-08T05:02:29;17.60;;;16.10;;
21202;SDS011;10759;51.982;9.232;2023-05-08T05:04:57;14.40;;;13.30;;
21202;SDS011;10759;51.982;9.232;2023-05-08T05:07:27;14.23;;;13.07;;
21202;SDS011;10759;51.982;9.232;2023-05-08T05:09:57;13.98;;;13.07;;
21202;SDS011;10759;51.982;9.232;2023-05-08T05:12:26;13.98;;;12.77;;
21202;SDS011;10759;51.982;9.232;2023-05-08T05:14:54;14.40;;;13.23;;
21202;SDS011;10759;51.982;9.232;2023-05-08T05:17:23;13.50;;;12.50;;
21202;SDS011;10759;51.982;9.232;2023-05-08T05:19:51;14.65;;;13.45;;
21202;SDS011;10759;51.982;9.232;2023-05-08T05:22:20;14.50;;;13.50;;
21202;SDS011;10759;51.982;9.232;2023-05-08T05:24:48;14.60;;;13.60;;
21202;SDS011;10759;51.982;9.232;2023-05-08T05:27:17;14.93;;;13.82;;
21202;SDS011;10759;51.982;9.232;2023-05-08T05:29:47;14.52;;;13.43;;
21202;SDS011;10759;51.982;9.232;2023-05-08T05:32:15;15.13;;;14.02;;
21202;SDS011;10759;51.982;9.232;2023-05-08T05:34:43;14.63;;;13.50;;
21202;SDS011;10759;51.982;9.232;2023-05-08T05:37:11;15.60;;;14.40;;
21202;SDS011;10759;51.982;9.232;2023-05-08T05:39:39;15.73;;;14.52;;
21202;SDS011;10759;51.982;9.232;2023-05-08T05:42:07;16.83;;;15.63;;
21202;SDS011;10759;51.982;9.232;2023-05-08T05:44:36;15.95;;;14.52;;
21202;SDS011;10759;51.982;9.232;2023-05-08T05:47:04;17.20;;;15.85;;
21202;SDS011;10759;51.982;9.232;2023-05-08T05:49:36;17.98;;;16.42;;
21202;SDS011;10759;51.982;9.232;2023-05-08T05:52:05;16.92;;;15.73;;
21202;SDS011;10759;51.982;9.232;2023-05-08T05:54:33;15.27;;;14.07;;
21202;SDS011;10759;51.982;9.232;2023-05-08T05:57:01;16.60;;;15.07;;
21202;SDS011;10759;51.982;9.232;2023-05-08T05:59:29;17.58;;;15.93;;
21202;SDS011;10759;51.982;9.232;2023-05-08T06:01:58;16.92;;;15.27;;
21202;SDS011;10759;51.982;9.232;2023-05-08T06:04:26;15.93;;;14.73;;
21202;SDS011;10759;51.982;9.232;2023-05-08T06:06:54;15.55;;;14.35;;
21202;SDS011;10759;51.982;9.232;2023-05-08T06:09:22;15.77;;;14.60;;
21202;SDS011;10759;51.982;9.232;2023-05-08T06:11:50;15.55;;;13.82;;
21202;SDS011;10759;51.982;9.232;2023-05-08T06:14:18;15.50;;;14.13;;
21202;SDS011;10759;51.982;9.232;2023-05-08T06:16:46;14.80;;;13.70;;
21202;SDS011;10759;51.982;9.232;2023-05-08T06:19:16;15.73;;;14.43;;
21202;SDS011;10759;51.982;9.232;2023-05-08T06:21:44;15.82;;;14.60;;
21202;SDS011;10759;51.982;9.232;2023-05-08T06:24:12;16.27;;;14.88;;
21202;SDS011;10759;51.982;9.232;2023-05-08T06:26:39;15.57;;;14.38;;
21202;SDS011;10759;51.982;9.232;2023-05-08T06:29:07;15.32;;;14.13;;
21202;SDS011;10759;51.982;9.232;2023-05-08T06:31:35;16.67;;;15.32;;
21202;SDS011;10759;51.982;9.232;2023-05-08T06:34:03;15.48;;;14.27;;
21202;SDS011;10759;51.982;9.232;2023-05-08T06:36:32;17.15;;;15.75;;
21202;SDS011;10759;51.982;9.232;2023-05-08T06:39:02;16.13;;;14.82;;
21202;SDS011;10759;51.982;9.232;2023-05-08T06:41:31;15.15;;;14.00;;
21202;SDS011;10759;51.982;9.232;2023-05-08T06:43:59;14.93;;;13.82;;
21202;SDS011;10759;51.982;9.232;2023-05-08T06:46:26;14.93;;;13.85;;
21202;SDS011;10759;51.982;9.232;2023-05-08T06:48:55;15.55;;;14.32;;
21202;SDS011;10759;51.982;9.232;2023-05-08T06:51:23;14.13;;;13.02;;
21202;SDS011;10759;51.982;9.232;2023-05-08T06:53:52;14.63;;;13.45;;
21202;SDS011;10759;51.982;9.232;2023-05-08T06:56:20;15.18;;;13.88;;
21202;SDS011;10759;51.982;9.232;2023-05-08T06:58:48;14.13;;;13.02;;
21202;SDS011;10759;51.982;9.232;2023-05-08T07:01:33;13.88;;;12.88;;
21202;SDS011;10759;51.982;9.232;2023-05-08T07:04:02;14.57;;;13.57;;
21202;SDS011;10759;51.982;9.232;2023-05-08T07:06:31;14.10;;;13.00;;
21202;SDS011;10759;51.982;9.232;2023-05-08T07:09:00;13.93;;;12.75;;
21202;SDS011;10759;51.982;9.232;2023-05-08T07:11:28;14.73;;;13.48;;
21202;SDS011;10759;51.982;9.232;2023-05-08T07:13:56;15.27;;;14.10;;
21202;SDS011;10759;51.982;9.232;2023-05-08T07:16:23;14.93;;;13.82;;
21202;SDS011;10759;51.982;9.232;2023-05-08T07:18:52;13.80;;;12.73;;
21202;SDS011;10759;51.982;9.232;2023-05-08T07:21:20;14.32;;;13.23;;
21202;SDS011;10759;51.982;9.232;2023-05-08T07:23:47;14.35;;;13.10;;
21202;SDS011;10759;51.982;9.232;2023-05-08T07:26:18;14.02;;;13.02;;
21202;SDS011;10759;51.982;9.232;2023-05-08T07:28:46;13.10;;;11.95;;
21202;SDS011;10759;51.982;9.232;2023-05-08T07:31:16;13.45;;;12.45;;
21202;SDS011;10759;51.982;9.232;2023-05-08T07:33:43;13.20;;;12.20;;
21202;SDS011;10759;51.982;9.232;2023-05-08T07:36:12;12.68;;;11.60;;
21202;SDS011;10759;51.982;9.232;2023-05-08T07:38:40;13.65;;;12.38;;
21202;SDS011;10759;51.982;9.232;2023-05-08T07:41:07;13.10;;;12.10;;
21202;SDS011;10759;51.982;9.232;2023-05-08T07:43:37;13.48;;;12.38;;
21202;SDS011;10759;51.982;9.232;2023-05-08T07:46:05;13.40;;;12.50;;
21202;SDS011;10759;51.982;9.232;2023-05-08T07:48:33;12.77;;;11.85;;
21202;SDS011;10759;51.982;9.232;2023-05-08T07:51:01;14.05;;;13.00;;
21202;SDS011;10759;51.982;9.232;2023-05-08T07:53:29;13.25;;;12.25;;
21202;SDS011;10759;51.982;9.232;2023-05-08T07:55:57;14.18;;;13.18;;
21202;SDS011;10759;51.982;9.232;2023-05-08T07:58:25;13.35;;;12.35;;
21202;SDS011;10759;51.982;9.232;2023-05-08T08:00:54;14.05;;;12.85;;
21202;SDS011;10759;51.982;9.232;2023-05-08T08:03:22;12.35;;;11.45;;
21202;SDS011;10759;51.982;9.232;2023-05-08T08:05:50;13.38;;;12.27;;
21202;SDS011;10759;51.982;9.232;2023-05-08T08:08:18;11.88;;;10.98;;
21202;SDS011;10759;51.982;9.232;2023-05-08T08:10:46;12.52;;;11.63;;
21202;SDS011;10759;51.982;9.232;2023-05-08T08:13:14;13.55;;;12.40;;
21202;SDS011;10759;51.982;9.232;2023-05-08T08:15:42;12.23;;;11.23;;
21202;SDS011;10759;51.982;9.232;2023-05-08T08:18:12;12.23;;;11.38;;
21202;SDS011;10759;51.982;9.232;2023-05-08T08:20:40;11.73;;;10.75;;
21202;SDS011;10759;51.982;9.232;2023-05-08T08:23:08;11.85;;;11.05;;
21202;SDS011;10759;51.982;9.232;2023-05-08T08:25:36;12.10;;;11.07;;
21202;SDS011;10759;51.982;9.232;2023-05-08T08:28:03;11.93;;;11.13;;
21202;SDS011;10759;51.982;9.232;2023-05-08T08:30:31;11.40;;;10.60;;
21202;SDS011;10759;51.982;9.232;2023-05-08T08:32:59;11.30;;;10.52;;
21202;SDS011;10759;51.982;9.232;2023-05-08T08:35:31;10.55;;;9.80;;
21202;SDS011;10759;51.982;9.232;2023-05-08T08:37:59;9.93;;;9.15;;
21202;SDS011;10759;51.982;9.232;2023-05-08T08:40:27;9.20;;;8.60;;
21202;SDS011;10759;51.982;9.232;2023-05-08T08:42:55;10.00;;;9.20;;
21202;SDS011;10759;51.982;9.232;2023-05-08T08:45:23;9.40;;;8.80;;
21202;SDS011;10759;51.982;9.232;2023-05-08T08:47:51;9.70;;;9.00;;
21202;SDS011;10759;51.982;9.232;2023-05-08T08:50:19;9.63;;;8.93;;
21202;SDS011;10759;51.982;9.232;2023-05-08T08:52:53;10.82;;;10.00;;
21202;SDS011;10759;51.982;9.232;2023-05-08T08:55:27;12.10;;;8.85;;
21202;SDS011;10759;51.982;9.232;2023-05-08T08:57:59;9.27;;;8.48;;
21202;SDS011;10759;51.982;9.232;2023-05-08T09:00:33;10.07;;;9.38;;
21202;SDS011;10759;51.982;9.232;2023-05-08T09:05:32;9.25;;;8.50;;
21202;SDS011;10759;51.982;9.232;2023-05-08T09:08:02;10.10;;;9.20;;
21202;SDS011;10759;51.982;9.232;2023-05-08T09:10:31;9.73;;;9.02;;
21202;SDS011;10759;51.982;9.232;2023-05-08T09:12:59;11.52;;;10.40;;
21202;SDS011;10759;51.982;9.232;2023-05-08T09:15:27;10.27;;;9.55;;
21202;SDS011;10759;51.982;9.232;2023-05-08T09:17:55;10.27;;;9.55;;
21202;SDS011;10759;51.982;9.232;2023-05-08T09:20:23;11.18;;;10.38;;
21202;SDS011;10759;51.982;9.232;2023-05-08T09:22:52;10.52;;;9.63;;
21202;SDS011;10759;51.982;9.232;2023-05-08T09:25:22;11.32;;;10.52;;
21202;SDS011;10759;51.982;9.232;2023-05-08T09:27:50;10.25;;;9.55;;
21202;SDS011;10759;51.982;9.232;2023-05-08T09:30:18;10.82;;;9.90;;
21202;SDS011;10759;51.982;9.232;2023-05-08T09:32:46;9.75;;;8.95;;
21202;SDS011;10759;51.982;9.232;2023-05-08T09:35:15;10.93;;;10.07;;
21202;SDS011;10759;51.982;9.232;2023-05-08T09:37:43;9.65;;;8.95;;
21202;SDS011;10759;51.982;9.232;2023-05-08T09:40:16;10.05;;;9.35;;
21202;SDS011;10759;51.982;9.232;2023-05-08T09:42:47;10.00;;;9.30;;
21202;SDS011;10759;51.982;9.232;2023-05-08T09:45:25;9.82;;;9.13;;
21202;SDS011;10759;51.982;9.232;2023-05-08T09:47:54;10.13;;;9.45;;
21202;SDS011;10759;51.982;9.232;2023-05-08T09:50:23;10.15;;;9.38;;
21202;SDS011;10759;51.982;9.232;2023-05-08T09:52:52;10.48;;;9.68;;
21202;SDS011;10759;51.982;9.232;2023-05-08T09:55:21;9.57;;;8.88;;
21202;SDS011;10759;51.982;9.232;2023-05-08T09:57:54;10.32;;;9.43;;
21202;SDS011;10759;51.982;9.232;2023-05-08T10:00:23;9.00;;;8.38;;
21202;SDS011;10759;51.982;9.232;2023-05-08T10:02:53;9.40;;;8.80;;
21202;SDS011;10759;51.982;9.232;2023-05-08T10:05:23;9.98;;;9.07;;
21202;SDS011;10759;51.982;9.232;2023-05-08T10:07:52;10.00;;;9.30;;
21202;SDS011;10759;51.982;9.232;2023-05-08T10:10:23;8.88;;;8.18;;
21202;SDS011;10759;51.982;9.232;2023-05-08T10:12:57;9.73;;;8.93;;
21202;SDS011;10759;51.982;9.232;2023-05-08T10:15:27;7.78;;;7.28;;
21202;SDS011;10759;51.982;9.232;2023-05-08T10:17:59;8.77;;;8.10;;
21202;SDS011;10759;51.982;9.232;2023-05-08T10:20:31;9.15;;;8.45;;
21202;SDS011;10759;51.982;9.232;2023-05-08T10:23:00;8.70;;;8.20;;
21202;SDS011;10759;51.982;9.232;2023-05-08T10:25:30;9.50;;;8.80;;
21202;SDS011;10759;51.982;9.232;2023-05-08T10:28:05;8.15;;;7.53;;
21202;SDS011;10759;51.982;9.232;2023-05-08T10:30:37;7.85;;;7.20;;
21202;SDS011;10759;51.982;9.232;2023-05-08T10:33:10;9.32;;;8.57;;
21202;SDS011;10759;51.982;9.232;2023-05-08T10:35:41;8.48;;;7.78;;
21202;SDS011;10759;51.982;9.232;2023-05-08T10:38:11;8.65;;;8.05;;
21202;SDS011;10759;51.982;9.232;2023-05-08T10:40:43;9.52;;;8.82;;
21202;SDS011;10759;51.982;9.232;2023-05-08T10:43:12;8.70;;;8.10;;
21202;SDS011;10759;51.982;9.232;2023-05-08T10:45:42;9.38;;;8.68;;
21202;SDS011;10759;51.982;9.232;2023-05-08T10:48:15;8.57;;;7.88;;
21202;SDS011;10759;51.982;9.232;2023-05-08T10:50:55;7.82;;;7.28;;
21202;SDS011;10759;51.982;9.232;2023-05-08T10:53:30;8.30;;;7.80;;
21202;SDS011;10759;51.982;9.232;2023-05-08T10:56:05;8.32;;;7.70;;
21202;SDS011;10759;51.982;9.232;2023-05-08T10:58:35;8.77;;;8.18;;
21202;SDS011;10759;51.982;9.232;2023-05-08T11:01:14;8.90;;;8.10;;
21202;SDS011;10759;51.982;9.232;2023-05-08T11:03:43;9.10;;;8.40;;
21202;SDS011;10759;51.982;9.232;2023-05-08T11:06:13;8.68;;;7.88;;
21202;SDS011;10759;51.982;9.232;2023-05-08T11:08:45;9.23;;;8.48;;
21202;SDS011;10759;51.982;9.232;2023-05-08T11:11:25;8.95;;;8.23;;
21202;SDS011;10759;51.982;9.232;2023-05-08T11:14:08;9.30;;;8.60;;
21202;SDS011;10759;51.982;9.232;2023-05-08T11:19:35;8.00;;;7.45;;
21202;SDS011;10759;51.982;9.232;2023-05-08T11:22:20;9.40;;;8.53;;
21202;SDS011;10759;51.982;9.232;2023-05-08T11:24:55;8.77;;;8.18;;
21202;SDS011;10759;51.982;9.232;2023-05-08T11:30:43;8.88;;;8.27;;
21202;SDS011;10759;51.982;9.232;2023-05-08T11:33:15;8.48;;;7.82;;
21202;SDS011;10759;51.982;9.232;2023-05-08T11:35:50;8.18;;;7.57;;
21202;SDS011;10759;51.982;9.232;2023-05-08T11:38:21;7.78;;;7.25;;
21202;SDS011;10759;51.982;9.232;2023-05-08T11:40:58;8.10;;;7.50;;
21202;SDS011;10759;51.982;9.232;2023-05-08T11:43:35;7.97;;;7.32;;
21202;SDS011;10759;51.982;9.232;2023-05-08T11:46:21;7.55;;;7.05;;
21202;SDS011;10759;51.982;9.232;2023-05-08T11:48:53;6.97;;;6.57;;
21202;SDS011;10759;51.982;9.232;2023-05-08T11:51:25;7.18;;;6.68;;
21202;SDS011;10759;51.982;9.232;2023-05-08T11:53:58;7.72;;;7.20;;
21202;SDS011;10759;51.982;9.232;2023-05-08T11:56:26;7.88;;;7.28;;
21202;SDS011;10759;51.982;9.232;2023-05-08T11:59:00;7.68;;;6.93;;
21202;SDS011;10759;51.982;9.232;2023-05-08T12:01:31;7.30;;;6.80;;
21202;SDS011;10759;51.982;9.232;2023-05-08T12:03:59;7.38;;;6.72;;
21202;SDS011;10759;51.982;9.232;2023-05-08T12:06:28;6.50;;;6.07;;
21202;SDS011;10759;51.982;9.232;2023-05-08T12:08:57;7.53;;;7.03;;
21202;SDS011;10759;51.982;9.232;2023-05-08T12:11:25;7.65;;;7.15;;
21202;SDS011;10759;51.982;9.232;2023-05-08T12:13:54;7.78;;;7.18;;
21202;SDS011;10759;51.982;9.232;2023-05-08T12:16:22;7.40;;;6.90;;
21202;SDS011;10759;51.982;9.232;2023-05-08T12:18:55;7.35;;;6.85;;
21202;SDS011;10759;51.982;9.232;2023-05-08T12:21:23;7.65;;;7.03;;
21202;SDS011;10759;51.982;9.232;2023-05-08T12:23:52;6.65;;;6.15;;
21202;SDS011;10759;51.982;9.232;2023-05-08T12:26:20;7.07;;;6.40;;
21202;SDS011;10759;51.982;9.232;2023-05-08T12:28:53;8.10;;;7.50;;
21202;SDS011;10759;51.982;9.232;2023-05-08T12:31:22;7.78;;;7.07;;
21202;SDS011;10759;51.982;9.232;2023-05-08T12:33:50;6.90;;;6.30;;
21202;SDS011;10759;51.982;9.232;2023-05-08T12:36:20;7.30;;;6.75;;
21202;SDS011;10759;51.982;9.232;2023-05-08T12:38:49;7.45;;;6.95;;
21202;SDS011;10759;51.982;9.232;2023-05-08T12:41:22;7.30;;;6.80;;
21202;SDS011;10759;51.982;9.232;2023-05-08T12:43:50;7.95;;;7.25;;
21202;SDS011;10759;51.982;9.232;2023-05-08T12:46:18;7.63;;;7.03;;
21202;SDS011;10759;51.982;9.232;2023-05-08T12:48:47;8.20;;;7.50;;
21202;SDS011;10759;51.982;9.232;2023-05-08T12:51:16;8.75;;;8.05;;
21202;SDS011;10759;51.982;9.232;2023-05-08T12:53:44;7.37;;;6.87;;
21202;SDS011;10759;51.982;9.232;2023-05-08T12:56:13;7.32;;;6.82;;
21202;SDS011;10759;51.982;9.232;2023-05-08T12:58:48;7.55;;;7.05;;
21202;SDS011;10759;51.982;9.232;2023-05-08T13:01:16;7.82;;;7.22;;
21202;SDS011;10759;51.982;9.232;2023-05-08T13:03:44;8.52;;;7.60;;
21202;SDS011;10759;51.982;9.232;2023-05-08T13:06:29;8.05;;;7.35;;
21202;SDS011;10759;51.982;9.232;2023-05-08T13:08:57;8.07;;;7.50;;
21202;SDS011;10759;51.982;9.232;2023-05-08T13:11:28;7.72;;;7.03;;
21202;SDS011;10759;51.982;9.232;2023-05-08T13:13:58;8.27;;;7.15;;
21202;SDS011;10759;51.982;9.232;2023-05-08T13:16:26;7.60;;;7.00;;
21202;SDS011;10759;51.982;9.232;2023-05-08T13:18:54;7.32;;;6.75;;
21202;SDS011;10759;51.982;9.232;2023-05-08T13:21:22;8.02;;;7.32;;
21202;SDS011;10759;51.982;9.232;2023-05-08T13:23:54;7.82;;;7.22;;
21202;SDS011;10759;51.982;9.232;2023-05-08T13:26:23;7.80;;;7.28;;
21202;SDS011;10759;51.982;9.232;2023-05-08T13:28:51;7.60;;;7.10;;
21202;SDS011;10759;51.982;9.232;2023-05-08T13:31:22;7.60;;;7.00;;
21202;SDS011;10759;51.982;9.232;2023-05-08T13:33:50;7.40;;;6.90;;
21202;SDS011;10759;51.982;9.232;2023-05-08T13:36:18;6.80;;;6.30;;
21202;SDS011;10759;51.982;9.232;2023-05-08T13:38:46;10.93;;;7.43;;
21202;SDS011;10759;51.982;9.232;2023-05-08T13:41:15;7.47;;;6.72;;
21202;SDS011;10759;51.982;9.232;2023-05-08T13:43:43;7.72;;;7.10;;
21202;SDS011;10759;51.982;9.232;2023-05-08T13:46:11;7.78;;;7.28;;
21202;SDS011;10759;51.982;9.232;2023-05-08T13:48:39;7.35;;;6.85;;
21202;SDS011;10759;51.982;9.232;2023-05-08T13:51:07;7.80;;;7.28;;
21202;SDS011;10759;51.982;9.232;2023-05-08T13:53:35;7.88;;;7.28;;
21202;SDS011;10759;51.982;9.232;2023-05-08T13:56:03;7.38;;;6.82;;
21202;SDS011;10759;51.982;9.232;2023-05-08T13:58:33;8.52;;;7.78;;
21202;SDS011;10759;51.982;9.232;2023-05-08T14:01:01;8.03;;;7.33;;
21202;SDS011;10759;51.982;9.232;2023-05-08T14:03:47;7.43;;;6.93;;
21202;SDS011;10759;51.982;9.232;2023-05-08T14:06:15;6.80;;;6.20;;
21202;SDS011;10759;51.982;9.232;2023-05-08T14:08:43;7.75;;;7.15;;
21202;SDS011;10759;51.982;9.232;2023-05-08T14:11:16;7.32;;;6.82;;
21202;SDS011;10759;51.982;9.232;2023-05-08T14:13:45;7.10;;;6.50;;
21202;SDS011;10759;51.982;9.232;2023-05-08T14:16:13;7.03;;;6.57;;
21202;SDS011;10759;51.982;9.232;2023-05-08T14:18:41;7.22;;;6.72;;
21202;SDS011;10759;51.982;9.232;2023-05-08T14:21:09;6.78;;;6.35;;
21202;SDS011;10759;51.982;9.232;2023-05-08T14:23:37;7.15;;;6.65;;
21202;SDS011;10759;51.982;9.232;2023-05-08T14:26:05;6.45;;;5.95;;
21202;SDS011;10759;51.982;9.232;2023-05-08T14:28:33;6.82;;;6.32;;
21202;SDS011;10759;51.982;9.232;2023-05-08T14:31:02;7.72;;;7.00;;
21202;SDS011;10759;51.982;9.232;2023-05-08T14:33:30;8.27;;;7.65;;
21202;SDS011;10759;51.982;9.232;2023-05-08T14:35:58;7.47;;;6.88;;
21202;SDS011;10759;51.982;9.232;2023-05-08T14:38:26;7.50;;;6.25;;
21202;SDS011;10759;51.982;9.232;2023-05-08T14:40:54;8.10;;;7.40;;
21202;SDS011;10759;51.982;9.232;2023-05-08T14:43:22;7.07;;;6.53;;
21202;SDS011;10759;51.982;9.232;2023-05-08T14:45:50;6.70;;;6.20;;
21202;SDS011;10759;51.982;9.232;2023-05-08T14:48:20;6.38;;;5.88;;
21202;SDS011;10759;51.982;9.232;2023-05-08T14:50:48;6.68;;;6.28;;
21202;SDS011;10759;51.982;9.232;2023-05-08T14:53:16;6.55;;;6.00;;
21202;SDS011;10759;51.982;9.232;2023-05-08T14:55:44;6.50;;;5.90;;
21202;SDS011;10759;51.982;9.232;2023-05-08T14:58:12;6.72;;;6.20;;
21202;SDS011;10759;51.982;9.232;2023-05-08T15:00:40;6.65;;;6.22;;
21202;SDS011;10759;51.982;9.232;2023-05-08T15:03:08;6.50;;;6.00;;
21202;SDS011;10759;51.982;9.232;2023-05-08T15:05:38;6.38;;;5.97;;
21202;SDS011;10759;51.982;9.232;2023-05-08T15:08:05;6.40;;;5.97;;
21202;SDS011;10759;51.982;9.232;2023-05-08T15:10:34;6.13;;;5.72;;